createdAt,value
2022-12-09T00:01:24.435Z,9.47
2022-12-09T00:03:51.721Z,9.64
2022-12-09T00:06:21.296Z,9.59
2022-12-09T00:08:49.153Z,9.63
2022-12-09T00:11:17.032Z,9.95
2022-12-09T00:13:43.796Z,9.75
2022-12-09T00:16:13.379Z,9.52
2022-12-09T00:18:40.709Z,9.42
2022-12-09T00:21:18.514Z,9.52
2022-12-09T00:23:46.123Z,9.45
2022-12-09T00:26:32.505Z,9.49
2022-12-09T00:29:00.036Z,9.85
2022-12-09T00:31:32.784Z,9.82
2022-12-09T00:34:03.016Z,9.63
2022-12-09T00:36:30.285Z,9.73
2022-12-09T00:38:59.775Z,9.90
2022-12-09T00:41:29.419Z,9.32
2022-12-09T00:43:57.253Z,9.51
2022-12-09T00:46:24.388Z,10.04
2022-12-09T00:48:51.348Z,9.97
2022-12-09T00:51:20.881Z,9.66
2022-12-09T00:53:48.371Z,10.05
2022-12-09T00:56:15.991Z,10.15
2022-12-09T00:58:43.102Z,9.96
2022-12-09T01:01:10.048Z,9.48
2022-12-09T01:03:39.205Z,9.85
2022-12-09T01:06:14.310Z,9.91
2022-12-09T01:08:42.874Z,8.97
2022-12-09T01:11:20.493Z,9.62
2022-12-09T01:13:49.410Z,9.90
2022-12-09T01:16:20.698Z,9.74
2022-12-09T01:18:49.260Z,9.81
2022-12-09T01:21:16.365Z,9.72
2022-12-09T01:23:43.809Z,9.68
2022-12-09T01:26:10.919Z,9.86
2022-12-09T01:28:39.772Z,10.07
2022-12-09T01:31:15.735Z,10.15
2022-12-09T01:33:43.674Z,9.81
2022-12-09T01:36:14.433Z,10.07
2022-12-09T01:38:41.441Z,10.03
2022-12-09T01:41:08.921Z,10.00
2022-12-09T01:43:35.840Z,9.98
2022-12-09T01:46:02.698Z,9.73
2022-12-09T01:48:37.000Z,9.47
2022-12-09T01:51:14.888Z,9.75
2022-12-09T01:53:45.218Z,9.89
2022-12-09T01:56:22.575Z,10.17
2022-12-09T01:58:51.623Z,10.09
2022-12-09T02:01:18.923Z,10.00
2022-12-09T02:03:45.981Z,9.42
2022-12-09T02:06:13.460Z,9.67
2022-12-09T02:08:43.140Z,9.82
2022-12-09T02:11:39.599Z,9.89
2022-12-09T02:14:21.758Z,9.89
2022-12-09T02:17:24.364Z,9.44
2022-12-09T02:20:02.047Z,9.58
2022-12-09T02:22:35.343Z,9.68
2022-12-09T02:25:11.385Z,8.62
2022-12-09T02:28:04.470Z,8.97
2022-12-09T02:30:58.732Z,9.47
2022-12-09T02:33:42.679Z,9.44
2022-12-09T02:36:17.588Z,9.52
2022-12-09T02:38:49.494Z,9.82
2022-12-09T02:41:21.905Z,9.64
2022-12-09T02:43:55.588Z,9.68
2022-12-09T02:46:28.740Z,9.60
2022-12-09T02:48:59.320Z,9.73
2022-12-09T02:51:30.846Z,9.39
2022-12-09T02:54:06.859Z,9.48
2022-12-09T02:56:35.791Z,8.84
2022-12-09T02:59:03.615Z,8.76
2022-12-09T03:01:57.778Z,8.95
2022-12-09T03:04:28.630Z,9.10
2022-12-09T03:07:02.784Z,9.53
2022-12-09T03:09:37.048Z,9.77
2022-12-09T03:12:09.233Z,9.66
2022-12-09T03:14:45.486Z,9.56
2022-12-09T03:17:21.945Z,9.76
2022-12-09T03:20:05.124Z,9.74
2022-12-09T03:22:35.532Z,9.39
2022-12-09T03:25:12.506Z,10.05
2022-12-09T03:27:48.670Z,10.02
2022-12-09T03:30:16.977Z,9.91
2022-12-09T03:32:46.050Z,9.02
2022-12-09T03:35:22.122Z,9.31
2022-12-09T03:37:51.266Z,9.40
2022-12-09T03:40:26.268Z,9.59
2022-12-09T03:43:04.004Z,9.72
2022-12-09T03:45:32.429Z,9.32
2022-12-09T03:47:59.576Z,9.25
2022-12-09T03:50:32.041Z,9.51
2022-12-09T03:53:06.123Z,9.70
2022-12-09T03:55:45.186Z,8.95
2022-12-09T03:58:15.114Z,9.29
2022-12-09T04:00:42.993Z,9.45
2022-12-09T04:03:12.968Z,9.36
2022-12-09T04:05:40.272Z,9.30
2022-12-09T04:08:07.322Z,9.59
2022-12-09T04:10:34.139Z,9.30
2022-12-09T04:13:01.378Z,9.36
2022-12-09T04:15:28.145Z,9.47
2022-12-09T04:17:56.434Z,9.66
2022-12-09T04:20:23.554Z,9.67
2022-12-09T04:22:50.356Z,9.42
2022-12-09T04:25:17.565Z,9.50
2022-12-09T04:27:44.912Z,9.51
2022-12-09T04:30:12.518Z,9.28
2022-12-09T04:32:40.090Z,9.76
2022-12-09T04:35:07.574Z,9.65
2022-12-09T04:37:34.468Z,9.68
2022-12-09T04:40:01.407Z,9.78
2022-12-09T04:42:29.132Z,9.49
2022-12-09T04:44:55.998Z,9.16
2022-12-09T04:47:23.055Z,9.41
2022-12-09T04:49:49.839Z,9.38
2022-12-09T04:52:18.578Z,9.58
2022-12-09T04:54:45.532Z,9.56
2022-12-09T04:57:12.542Z,9.73
2022-12-09T04:59:39.505Z,9.65
2022-12-09T05:02:06.488Z,9.46
2022-12-09T05:04:33.624Z,9.07
2022-12-09T05:07:00.943Z,9.40
2022-12-09T05:09:27.923Z,9.46
2022-12-09T05:11:57.617Z,9.58
2022-12-09T05:14:25.263Z,9.69
2022-12-09T05:16:52.419Z,9.42
2022-12-09T05:19:19.534Z,9.27
2022-12-09T05:21:46.561Z,9.54
2022-12-09T05:24:14.333Z,9.50
2022-12-09T05:26:41.260Z,9.37
2022-12-09T05:29:08.134Z,9.38
2022-12-09T05:31:35.707Z,9.45
2022-12-09T05:34:03.201Z,9.43
2022-12-09T05:36:31.239Z,9.55
2022-12-09T05:38:58.529Z,9.49
2022-12-09T05:41:26.207Z,9.54
2022-12-09T05:43:53.483Z,9.50
2022-12-09T05:46:21.443Z,9.50
2022-12-09T05:48:49.109Z,9.65
2022-12-09T05:51:23.043Z,9.73
2022-12-09T05:53:50.470Z,9.45
2022-12-09T05:56:19.106Z,9.50
2022-12-09T05:58:47.436Z,9.00
2022-12-09T06:01:15.048Z,9.01
2022-12-09T06:03:42.830Z,8.82
2022-12-09T06:06:15.280Z,9.24
2022-12-09T06:08:43.891Z,9.54
2022-12-09T06:11:14.868Z,9.75
2022-12-09T06:13:42.920Z,9.37
2022-12-09T06:16:10.650Z,9.28
2022-12-09T06:18:38.632Z,9.60
2022-12-09T06:21:10.769Z,9.92
2022-12-09T06:23:41.395Z,9.83
2022-12-09T06:26:16.612Z,9.34
2022-12-09T06:28:43.995Z,9.62
2022-12-09T06:31:11.078Z,9.86
2022-12-09T06:33:54.393Z,9.85
2022-12-09T06:36:22.691Z,10.02
2022-12-09T06:38:50.135Z,9.73
2022-12-09T06:41:17.160Z,9.92
2022-12-09T06:43:44.760Z,9.89
2022-12-09T06:46:14.630Z,9.95
2022-12-09T06:48:41.982Z,9.79
2022-12-09T06:51:09.054Z,9.90
2022-12-09T06:53:36.119Z,10.17
2022-12-09T06:56:11.887Z,10.26
2022-12-09T06:58:44.592Z,10.08
2022-12-09T07:01:17.742Z,10.11
2022-12-09T07:03:47.984Z,9.96
2022-12-09T07:06:41.094Z,9.88
2022-12-09T07:09:11.489Z,9.09
2022-12-09T07:11:39.109Z,9.55
2022-12-09T07:14:06.737Z,9.96
2022-12-09T07:16:35.148Z,9.86
2022-12-09T07:19:03.438Z,9.99
2022-12-09T07:21:30.969Z,9.98
2022-12-09T07:24:02.957Z,10.06
2022-12-09T07:26:34.079Z,10.42
2022-12-09T07:29:03.131Z,10.53
2022-12-09T07:31:31.086Z,10.42
2022-12-09T07:33:59.127Z,10.13
2022-12-09T07:36:28.786Z,10.07
2022-12-09T07:39:08.333Z,10.18
2022-12-09T07:41:36.275Z,9.88
2022-12-09T07:44:04.120Z,10.31
2022-12-09T07:46:31.604Z,10.26
2022-12-09T07:48:59.384Z,10.22
2022-12-09T07:51:26.931Z,10.31
2022-12-09T07:53:54.322Z,10.69
2022-12-09T07:56:22.614Z,10.91
2022-12-09T07:58:54.578Z,10.35
2022-12-09T08:01:26.049Z,10.48
2022-12-09T08:03:55.651Z,10.73
2022-12-09T08:06:25.987Z,10.72
2022-12-09T08:08:53.922Z,10.74
2022-12-09T08:11:28.408Z,10.71
2022-12-09T08:13:57.772Z,10.64
2022-12-09T08:16:26.573Z,10.60
2022-12-09T08:18:55.528Z,10.78
2022-12-09T08:21:33.525Z,10.94
2022-12-09T08:24:02.702Z,10.71
2022-12-09T08:26:32.244Z,10.96
2022-12-09T08:28:59.914Z,10.83
2022-12-09T08:31:28.644Z,10.84
2022-12-09T08:33:56.847Z,10.83
2022-12-09T08:36:26.708Z,10.90
2022-12-09T08:38:55.355Z,10.79
2022-12-09T08:41:35.907Z,10.88
2022-12-09T08:44:15.468Z,11.07
2022-12-09T08:46:51.076Z,11.31
2022-12-09T08:49:22.113Z,11.42
2022-12-09T08:51:51.773Z,11.34
2022-12-09T08:54:19.107Z,11.47
2022-12-09T08:56:49.284Z,11.29
2022-12-09T08:59:17.105Z,11.39
2022-12-09T09:01:44.750Z,11.64
2022-12-09T09:04:16.426Z,11.43
2022-12-09T09:06:45.967Z,11.25
2022-12-09T09:09:15.255Z,11.85
2022-12-09T09:11:43.347Z,11.80
2022-12-09T09:14:13.318Z,12.01
2022-12-09T09:16:42.865Z,11.89
2022-12-09T09:19:16.557Z,12.29
2022-12-09T09:21:44.475Z,12.34
2022-12-09T09:24:14.209Z,12.27
2022-12-09T09:26:42.767Z,12.31
2022-12-09T09:29:17.425Z,12.32
2022-12-09T09:31:44.934Z,12.41
2022-12-09T09:34:12.363Z,12.37
2022-12-09T09:36:40.391Z,12.04
2022-12-09T09:39:07.666Z,12.24
2022-12-09T09:42:01.944Z,12.37
2022-12-09T09:44:39.418Z,12.34
2022-12-09T09:47:38.225Z,12.52
2022-12-09T09:50:18.831Z,12.43
2022-12-09T09:52:46.731Z,12.47
2022-12-09T09:55:42.573Z,12.27
2022-12-09T09:58:29.403Z,12.15
2022-12-09T10:01:07.790Z,12.31
2022-12-09T10:03:55.021Z,12.52
2022-12-09T10:06:50.318Z,12.31
2022-12-09T10:09:26.701Z,12.39
2022-12-09T10:12:14.303Z,12.72
2022-12-09T10:14:50.609Z,12.89
2022-12-09T10:17:57.154Z,12.49
2022-12-09T10:20:30.603Z,12.80
2022-12-09T10:23:04.125Z,12.72
2022-12-09T10:25:36.604Z,12.96
2022-12-09T10:28:23.006Z,13.10
2022-12-09T10:30:51.703Z,12.60
2022-12-09T10:33:24.416Z,12.73
2022-12-09T10:35:52.124Z,12.30
2022-12-09T10:38:20.916Z,12.24
2022-12-09T10:40:49.909Z,12.44
2022-12-09T10:43:41.071Z,12.65
2022-12-09T10:46:19.705Z,12.68
2022-12-09T10:48:49.001Z,12.34
2022-12-09T10:51:20.673Z,12.15
2022-12-09T10:54:08.324Z,12.52
2022-12-09T10:56:41.926Z,12.37
2022-12-09T10:59:29.954Z,12.54
2022-12-09T11:02:03.811Z,12.50
2022-12-09T11:04:37.650Z,12.66
2022-12-09T11:07:19.936Z,12.35
2022-12-09T11:09:52.355Z,12.79
2022-12-09T11:12:38.523Z,12.47
2022-12-09T11:15:27.983Z,12.73
2022-12-09T11:18:02.427Z,12.31
2022-12-09T11:20:31.883Z,12.18
2022-12-09T11:23:04.407Z,12.50
2022-12-09T11:25:36.108Z,11.95
2022-12-09T11:28:15.211Z,12.23
2022-12-09T11:31:27.091Z,12.48
2022-12-09T11:33:51.086Z,12.61
2022-12-09T11:36:22.177Z,12.89
2022-12-09T11:38:51.685Z,13.02
2022-12-09T11:41:46.227Z,13.01
2022-12-09T11:44:26.879Z,12.99
2022-12-09T11:47:07.947Z,13.09
2022-12-09T11:49:51.106Z,13.09
2022-12-09T11:52:18.380Z,13.44
2022-12-09T11:55:03.858Z,13.34
2022-12-09T11:57:45.195Z,13.06
2022-12-09T12:00:27.689Z,13.12
2022-12-09T12:03:13.356Z,12.88
2022-12-09T12:05:47.905Z,13.27
2022-12-09T12:08:31.433Z,13.12
2022-12-09T12:11:03.396Z,13.47
2022-12-09T12:13:46.231Z,13.15
2022-12-09T12:16:31.598Z,13.46
2022-12-09T12:19:07.115Z,13.27
2022-12-09T12:21:59.869Z,13.41
2022-12-09T12:24:52.184Z,13.54
2022-12-09T12:27:22.242Z,13.51
2022-12-09T12:30:00.830Z,13.73
2022-12-09T12:32:36.281Z,13.52
2022-12-09T12:35:53.997Z,13.68
2022-12-09T12:38:39.992Z,13.41
2022-12-09T12:41:11.903Z,13.53
2022-12-09T12:44:26.471Z,13.42
2022-12-09T12:47:19.598Z,12.91
2022-12-09T12:49:56.060Z,13.30
2022-12-09T12:52:54.409Z,13.40
2022-12-09T12:55:17.158Z,13.40
2022-12-09T12:57:58.454Z,13.14
2022-12-09T13:00:35.887Z,13.72
2022-12-09T13:03:39.886Z,13.82
2022-12-09T13:06:12.393Z,14.05
2022-12-09T13:08:46.226Z,13.83
2022-12-09T13:11:21.105Z,13.48
2022-12-09T13:14:11.721Z,13.14
2022-12-09T13:16:41.853Z,13.73
2022-12-09T13:19:43.832Z,13.94
2022-12-09T13:22:18.558Z,13.29
2022-12-09T13:25:21.517Z,13.70
2022-12-09T13:27:55.023Z,13.70
2022-12-09T13:30:27.241Z,14.12
2022-12-09T13:33:22.592Z,14.43
2022-12-09T13:35:54.987Z,14.60
2022-12-09T13:38:36.525Z,14.08
2022-12-09T13:41:31.654Z,14.19
2022-12-09T13:44:14.036Z,14.09
2022-12-09T13:46:42.941Z,14.19
2022-12-09T13:49:19.152Z,14.22
2022-12-09T13:51:51.568Z,14.33
2022-12-09T13:54:23.271Z,14.02
2022-12-09T13:57:02.281Z,13.98
2022-12-09T13:59:40.721Z,14.18
2022-12-09T14:02:16.995Z,14.27
2022-12-09T14:05:10.687Z,14.38
2022-12-09T14:07:50.319Z,14.17
2022-12-09T14:10:36.337Z,13.76
2022-12-09T14:13:21.868Z,14.31
2022-12-09T14:16:27.506Z,13.53
2022-12-09T14:18:56.159Z,13.53
2022-12-09T14:21:26.954Z,13.81
2022-12-09T14:24:11.558Z,14.14
2022-12-09T14:26:59.637Z,13.97
2022-12-09T14:29:59.021Z,13.68
2022-12-09T14:32:33.905Z,13.79
2022-12-09T14:35:02.791Z,14.07
2022-12-09T14:37:54.564Z,13.71
2022-12-09T14:40:32.260Z,14.16
2022-12-09T14:43:13.629Z,14.27
2022-12-09T14:45:54.636Z,14.44
2022-12-09T14:48:25.442Z,14.44
2022-12-09T14:51:27.903Z,14.14
2022-12-09T14:54:01.667Z,14.30
2022-12-09T14:56:33.319Z,14.26
2022-12-09T14:59:05.444Z,14.36
2022-12-09T15:02:09.777Z,14.28
2022-12-09T15:04:42.262Z,14.54
2022-12-09T15:07:15.324Z,14.40
2022-12-09T15:10:01.807Z,14.43
2022-12-09T15:12:50.762Z,14.40
2022-12-09T15:15:23.892Z,14.30
2022-12-09T15:18:05.576Z,14.28
2022-12-09T15:20:37.592Z,14.15
2022-12-09T15:23:15.357Z,13.78
2022-12-09T15:26:07.926Z,13.87
2022-12-09T15:28:37.461Z,13.80
2022-12-09T15:31:07.571Z,13.86
2022-12-09T15:33:44.582Z,13.67
2022-12-09T15:36:13.804Z,13.66
2022-12-09T15:38:57.789Z,14.01
2022-12-09T15:41:49.565Z,14.03
2022-12-09T15:44:20.849Z,13.68
2022-12-09T15:46:50.857Z,13.38
2022-12-09T15:49:23.227Z,13.77
2022-12-09T15:51:54.896Z,13.67
2022-12-09T15:54:30.379Z,13.44
2022-12-09T15:57:03.436Z,13.82
2022-12-09T15:59:35.551Z,13.68
2022-12-09T16:02:02.786Z,12.54
2022-12-09T16:04:38.078Z,12.77
2022-12-09T16:07:10.153Z,13.65
2022-12-09T16:09:36.928Z,13.61
2022-12-09T16:12:04.682Z,13.62
2022-12-09T16:14:44.051Z,13.40
2022-12-09T16:17:21.726Z,13.38
2022-12-09T16:19:49.112Z,13.36
2022-12-09T16:22:19.749Z,13.60
2022-12-09T16:27:39.637Z,13.36
2022-12-09T16:30:16.569Z,13.45
2022-12-09T16:32:55.182Z,13.64
2022-12-09T16:35:43.994Z,13.56
2022-12-09T16:38:10.867Z,13.58
2022-12-09T16:40:46.515Z,13.23
2022-12-09T16:43:16.995Z,13.31
2022-12-09T16:45:54.109Z,13.43
2022-12-09T16:48:23.601Z,13.54
2022-12-09T16:51:12.559Z,13.10
2022-12-09T16:53:51.697Z,13.12
2022-12-09T16:56:29.410Z,13.25
2022-12-09T16:58:57.000Z,12.90
2022-12-09T17:01:29.560Z,13.17
2022-12-09T17:04:17.042Z,13.00
2022-12-09T17:06:44.487Z,13.03
2022-12-09T17:09:14.676Z,12.61
2022-12-09T17:11:46.963Z,12.81
2022-12-09T17:14:15.659Z,13.23
2022-12-09T17:16:42.486Z,13.12
2022-12-09T17:19:09.849Z,13.61
2022-12-09T17:21:37.085Z,13.33
2022-12-09T17:24:04.142Z,13.39
2022-12-09T17:26:31.047Z,13.46
2022-12-09T17:29:01.625Z,13.40
2022-12-09T17:31:30.019Z,13.25
2022-12-09T17:33:57.449Z,13.36
2022-12-09T17:36:24.579Z,13.31
2022-12-09T17:38:51.475Z,12.47
2022-12-09T17:41:23.466Z,12.88
2022-12-09T17:43:51.323Z,12.75
2022-12-09T17:46:18.782Z,12.99
2022-12-09T17:48:46.052Z,13.18
2022-12-09T17:51:16.471Z,12.97
2022-12-09T17:53:43.802Z,12.37
2022-12-09T17:56:16.524Z,12.84
2022-12-09T17:58:44.124Z,12.49
2022-12-09T18:01:20.752Z,12.66
2022-12-09T18:03:55.900Z,13.02
2022-12-09T18:06:23.700Z,12.84
2022-12-09T18:08:50.991Z,13.28
2022-12-09T18:11:17.740Z,12.85
2022-12-09T18:13:44.706Z,12.79
2022-12-09T18:16:12.813Z,12.53
2022-12-09T18:18:40.665Z,11.91
2022-12-09T18:21:15.075Z,12.47
2022-12-09T18:23:42.877Z,12.61
2022-12-09T18:26:13.286Z,12.45
2022-12-09T18:28:40.330Z,12.09
2022-12-09T18:31:12.242Z,11.84
2022-12-09T18:33:39.750Z,11.91
2022-12-09T18:36:17.481Z,12.29
2022-12-09T18:38:45.337Z,12.22
2022-12-09T18:41:15.693Z,11.62
2022-12-09T18:43:45.194Z,11.90
2022-12-09T18:46:23.867Z,11.65
2022-12-09T18:49:00.780Z,11.62
2022-12-09T18:51:28.340Z,11.63
2022-12-09T18:53:58.425Z,12.02
2022-12-09T18:56:26.654Z,12.26
2022-12-09T18:59:09.892Z,11.94
2022-12-09T19:01:41.408Z,12.11
2022-12-09T19:04:13.351Z,11.97
2022-12-09T19:06:42.800Z,11.48
2022-12-09T19:09:13.848Z,11.42
2022-12-09T19:11:42.405Z,11.90
2022-12-09T19:14:10.475Z,12.04
2022-12-09T19:16:38.014Z,11.54
2022-12-09T19:19:09.634Z,11.49
2022-12-09T19:21:38.094Z,11.07
2022-12-09T19:24:05.885Z,11.31
2022-12-09T19:26:34.393Z,11.16
2022-12-09T19:29:04.645Z,11.68
2022-12-09T19:31:59.234Z,11.91
2022-12-09T19:34:30.507Z,11.97
2022-12-09T19:36:59.315Z,11.94
2022-12-09T19:39:34.030Z,11.88
2022-12-09T19:42:01.687Z,11.98
2022-12-09T19:44:59.519Z,11.37
2022-12-09T19:47:15.557Z,11.13
2022-12-09T19:49:44.305Z,11.33
2022-12-09T19:52:12.227Z,11.36
2022-12-09T19:54:39.594Z,11.13
2022-12-09T19:57:06.893Z,11.64
2022-12-09T19:59:35.252Z,11.83
2022-12-09T20:02:02.205Z,11.55
2022-12-09T20:07:19.389Z,11.58
2022-12-09T20:09:46.566Z,11.75
2022-12-09T20:12:13.951Z,11.81
2022-12-09T20:14:40.854Z,11.79
2022-12-09T20:17:08.011Z,11.79
2022-12-09T20:19:36.726Z,11.83
2022-12-09T20:22:04.210Z,11.79
2022-12-09T20:24:31.442Z,11.17
2022-12-09T20:26:58.230Z,11.33
2022-12-09T20:29:25.163Z,11.62
2022-12-09T20:31:52.858Z,11.68
2022-12-09T20:34:19.791Z,11.23
2022-12-09T20:36:47.269Z,10.69
2022-12-09T20:39:20.907Z,11.04
2022-12-09T20:41:48.565Z,11.11
2022-12-09T20:44:16.254Z,11.11
2022-12-09T20:46:51.672Z,10.85
2022-12-09T20:49:25.381Z,10.84
2022-12-09T20:51:54.646Z,11.71
2022-12-09T20:54:22.081Z,11.50
2022-12-09T20:56:49.043Z,10.98
2022-12-09T20:59:16.536Z,11.22
2022-12-09T21:01:45.815Z,11.26
2022-12-09T21:04:13.352Z,11.14
2022-12-09T21:06:41.381Z,11.20
2022-12-09T21:09:14.971Z,10.75
2022-12-09T21:11:42.550Z,11.27
2022-12-09T21:14:10.819Z,11.45
2022-12-09T21:16:40.795Z,11.39
2022-12-09T21:19:11.816Z,11.62
2022-12-09T21:21:41.515Z,11.67
2022-12-09T21:24:11.256Z,11.61
2022-12-09T21:26:38.975Z,11.83
2022-12-09T21:29:06.618Z,11.94
2022-12-09T21:31:37.027Z,12.00
2022-12-09T21:34:06.040Z,12.54
2022-12-09T21:36:36.590Z,12.68
2022-12-09T21:39:04.883Z,12.64
2022-12-09T21:41:36.472Z,12.12
2022-12-09T21:44:05.218Z,12.46
2022-12-09T21:46:34.757Z,12.60
2022-12-09T21:49:04.540Z,12.41
2022-12-09T21:51:33.112Z,12.42
2022-12-09T21:54:00.409Z,12.44
2022-12-09T21:56:31.457Z,12.02
2022-12-09T21:58:59.556Z,11.92
2022-12-09T22:01:40.706Z,12.16
2022-12-09T22:04:11.073Z,12.17
2022-12-09T22:06:38.954Z,12.09
2022-12-09T22:09:07.633Z,12.20
2022-12-09T22:11:36.855Z,12.02
2022-12-09T22:14:04.506Z,12.12
2022-12-09T22:16:35.128Z,12.20
2022-12-09T22:19:04.204Z,12.19
2022-12-09T22:21:33.675Z,11.89
2022-12-09T22:24:04.338Z,11.90
2022-12-09T22:26:31.695Z,11.92
2022-12-09T22:29:00.734Z,12.11
2022-12-09T22:31:30.194Z,11.75
2022-12-09T22:34:00.846Z,11.66
2022-12-09T22:36:28.662Z,11.84
2022-12-09T22:38:55.937Z,11.80
2022-12-09T22:41:25.703Z,11.93
2022-12-09T22:43:55.147Z,11.62
2022-12-09T22:46:25.457Z,11.72
2022-12-09T22:48:54.266Z,12.01
2022-12-09T22:51:24.407Z,11.86
2022-12-09T22:53:53.519Z,11.58
2022-12-09T22:56:21.399Z,11.45
2022-12-09T22:58:48.803Z,10.62
2022-12-09T23:01:23.037Z,10.92
2022-12-09T23:03:50.465Z,11.46
2022-12-09T23:06:17.657Z,11.84
2022-12-09T23:08:45.392Z,11.46
2022-12-09T23:11:20.932Z,11.59
2022-12-09T23:13:49.113Z,11.80
2022-12-09T23:16:19.492Z,11.55
2022-12-09T23:18:46.824Z,11.28
2022-12-09T23:21:16.503Z,10.88
2022-12-09T23:23:43.880Z,11.45
2022-12-09T23:26:16.511Z,11.49
2022-12-09T23:28:46.344Z,11.47
2022-12-09T23:31:15.258Z,11.56
2022-12-09T23:33:43.794Z,11.00
2022-12-09T23:36:14.415Z,10.89
2022-12-09T23:38:41.827Z,11.42
2022-12-09T23:41:10.704Z,10.86
2022-12-09T23:43:38.552Z,11.09
2022-12-09T23:46:14.852Z,11.39
2022-12-09T23:48:44.084Z,11.33
2022-12-09T23:51:11.617Z,11.05
2022-12-09T23:53:39.768Z,11.02
2022-12-09T23:56:07.885Z,11.45
2022-12-09T23:58:34.653Z,11.29
